Hauptseite
METAR-TAF:

METAR-TAF

Flughäfen :

NATO-Flugplatz Geilenkirchen

Geilenkirchen, Deutschland

Breite: 50-57-39N, Länge: 006-2-33E, Höhe: 90 m

Beobachtung

Neuester Wetterbericht von vor 40 Minuten, um 08:50 UTC
Wind 5 kt aus Südwest
Temperatur 15°C
Luftfeuchtigkeit 72%
Luftdruck 1024 hPa
Sichtweite 10 km oder mehr
keine Wolken unter 1500 m und keine Kumulonimbus oder Gewitterwolken

METAR: ETNG 280850Z 22005KT CAVOK 15/10 Q1024 NOSIG

Zeit: 11:30 (09:30 UTC)

Prognose

Neuester Wetterbericht von vor 1 Stunde und 30 Minuten, um 08:00 UTC
Gültige Prognose vom 28 um 09 UTC bis 28 um 24 UTC
Wind 7 kt aus Südwest
Aufgelockert bewölkt in der Höhe von 3000 ft
Durchbrochene Bewölkung in der Höhe von 27000 ft
Übergehend zu
vom 28 um 16 UTC bis 28 um 18 UTC
Wind 3 kt aus Südost

TAF: ETNG 280800Z 2809/2824 22007KT SCT030 BKN270 BECMG 2816/2818 14003KT

Wetterbeobachtungen und Prognosen von mehr als 4000 Flughäfen (METAR und TAF Bericht).

Die verfügbaren Stationen werden durch gelbe und rote Markierungen auf der Karte dargestellt.

Führen Sie die Maus auf sie, um den Namen der Station zu sehen.

Darauf klicken, um die Beobachtung von Wetterbeobachtungen und Prognosen zu sehen.

Um die Karte zu ändern : klicken Sie auf den grünen Tasten mit einem schwarzen Kreuz Zum Vergrößern, auf den grünen Button mit einem Gedankenstrich zu verkleinern, oder auf die grünen Pfeile für benachbarte Karten.


METAR-TAF: